createdAt,value
2023-01-17T00:02:23.407Z,8.59
2023-01-17T00:05:11.245Z,8.77
2023-01-17T00:07:58.250Z,8.57
2023-01-17T00:10:30.021Z,8.72
2023-01-17T00:13:02.635Z,8.92
2023-01-17T00:15:31.780Z,8.67
2023-01-17T00:18:00.323Z,8.68
2023-01-17T00:20:50.223Z,8.74
2023-01-17T00:23:40.241Z,8.63
2023-01-17T00:26:16.916Z,8.53
2023-01-17T00:28:46.398Z,8.52
2023-01-17T00:31:16.830Z,8.40
2023-01-17T00:33:45.769Z,8.57
2023-01-17T00:36:14.647Z,8.62
2023-01-17T00:38:43.941Z,8.88
2023-01-17T00:41:14.514Z,8.83
2023-01-17T00:44:01.795Z,8.85
2023-01-17T00:46:48.913Z,9.13
2023-01-17T00:49:36.122Z,8.61
2023-01-17T00:52:23.855Z,8.64
2023-01-17T00:55:11.259Z,8.36
2023-01-17T00:57:58.481Z,8.23
2023-01-17T01:00:46.001Z,8.21
2023-01-17T01:03:33.413Z,8.25
2023-01-17T01:06:23.902Z,8.27
2023-01-17T01:09:11.339Z,8.32
2023-01-17T01:11:58.470Z,8.01
2023-01-17T01:14:45.704Z,8.20
2023-01-17T01:17:32.864Z,8.36
2023-01-17T01:20:20.112Z,8.63
2023-01-17T01:23:07.579Z,8.80
2023-01-17T01:25:55.159Z,9.03
2023-01-17T01:28:42.666Z,9.05
2023-01-17T01:31:30.011Z,8.85
2023-01-17T01:33:58.505Z,8.59
2023-01-17T01:36:26.968Z,8.57
2023-01-17T01:38:57.029Z,8.70
2023-01-17T01:41:26.200Z,8.62
2023-01-17T01:43:56.249Z,8.69
2023-01-17T01:46:30.673Z,8.61
2023-01-17T01:49:11.445Z,8.77
2023-01-17T01:51:43.807Z,8.66
2023-01-17T01:54:20.031Z,8.61
2023-01-17T01:56:50.991Z,8.77
2023-01-17T01:59:22.946Z,8.79
2023-01-17T02:01:55.460Z,8.70
2023-01-17T02:04:26.651Z,8.62
2023-01-17T02:07:21.894Z,8.32
2023-01-17T02:09:50.429Z,8.09
2023-01-17T02:12:21.527Z,8.15
2023-01-17T02:14:50.490Z,8.21
2023-01-17T02:17:49.046Z,8.13
2023-01-17T02:20:29.428Z,8.20
2023-01-17T02:23:23.395Z,8.35
2023-01-17T02:26:01.176Z,8.34
2023-01-17T02:29:07.376Z,8.46
2023-01-17T02:31:39.734Z,8.26
2023-01-17T02:34:22.960Z,8.24
2023-01-17T02:37:01.479Z,8.29
2023-01-17T02:39:37.722Z,8.09
2023-01-17T02:42:12.073Z,8.16
2023-01-17T02:44:44.633Z,8.12
2023-01-17T02:47:22.398Z,7.89
2023-01-17T02:49:56.648Z,8.11
2023-01-17T02:52:51.233Z,8.06
2023-01-17T02:55:31.786Z,7.82
2023-01-17T02:58:03.251Z,7.89
2023-01-17T03:00:56.818Z,7.92
2023-01-17T03:03:28.478Z,7.93
2023-01-17T03:06:12.096Z,7.95
2023-01-17T03:08:43.681Z,7.74
2023-01-17T03:11:13.634Z,7.53
2023-01-17T03:13:42.516Z,7.54
2023-01-17T03:16:19.135Z,7.55
2023-01-17T03:18:47.726Z,7.39
2023-01-17T03:21:16.929Z,7.36
2023-01-17T03:23:45.523Z,7.37
2023-01-17T03:26:14.002Z,7.47
2023-01-17T03:28:42.756Z,7.64
2023-01-17T03:31:15.905Z,7.51
2023-01-17T03:33:44.362Z,7.44
2023-01-17T03:36:13.017Z,7.52
2023-01-17T03:38:41.697Z,7.64
2023-01-17T03:41:10.187Z,7.89
2023-01-17T03:43:39.085Z,7.82
2023-01-17T03:46:19.166Z,7.92
2023-01-17T03:48:48.681Z,7.92
2023-01-17T03:51:17.942Z,7.69
2023-01-17T03:53:47.356Z,7.65
2023-01-17T03:56:16.068Z,7.67
2023-01-17T03:58:44.514Z,7.58
2023-01-17T04:01:13.786Z,7.63
2023-01-17T04:03:42.508Z,7.61
2023-01-17T04:06:11.076Z,7.83
2023-01-17T04:08:39.719Z,7.75
2023-01-17T04:11:08.220Z,7.80
2023-01-17T04:13:36.681Z,7.56
2023-01-17T04:16:05.835Z,7.51
2023-01-17T04:18:34.363Z,7.51
2023-01-17T04:21:02.881Z,7.72
2023-01-17T04:23:32.381Z,8.02
2023-01-17T04:26:01.193Z,7.60
2023-01-17T04:28:32.015Z,7.55
2023-01-17T04:31:00.968Z,7.60
2023-01-17T04:33:30.081Z,7.50
2023-01-17T04:35:58.527Z,7.41
2023-01-17T04:38:27.273Z,7.40
2023-01-17T04:40:55.777Z,7.34
2023-01-17T04:43:24.379Z,7.28
2023-01-17T04:45:57.651Z,7.41
2023-01-17T04:48:27.467Z,7.32
2023-01-17T04:51:01.591Z,7.33
2023-01-17T04:53:30.129Z,7.54
2023-01-17T04:55:58.945Z,7.46
2023-01-17T04:58:27.985Z,7.62
2023-01-17T05:00:56.467Z,7.47
2023-01-17T05:03:25.456Z,7.62
2023-01-17T05:05:54.014Z,7.48
2023-01-17T05:08:22.504Z,7.61
2023-01-17T05:10:50.991Z,7.53
2023-01-17T05:13:19.761Z,7.61
2023-01-17T05:15:48.351Z,7.50
2023-01-17T05:18:18.948Z,7.65
2023-01-17T05:20:47.576Z,7.50
2023-01-17T05:23:16.074Z,7.55
2023-01-17T05:25:45.324Z,7.49
2023-01-17T05:28:14.398Z,7.57
2023-01-17T05:30:42.957Z,7.46
2023-01-17T05:33:11.527Z,7.65
2023-01-17T05:35:40.042Z,7.78
2023-01-17T05:38:08.495Z,7.70
2023-01-17T05:40:37.070Z,7.67
2023-01-17T05:43:05.804Z,7.56
2023-01-17T05:45:35.228Z,7.61
2023-01-17T05:48:04.792Z,7.72
2023-01-17T05:50:38.643Z,7.61
2023-01-17T05:53:13.065Z,7.67
2023-01-17T05:55:43.516Z,7.84
2023-01-17T05:58:17.606Z,7.86
2023-01-17T06:00:47.159Z,7.95
2023-01-17T06:03:28.516Z,7.94
2023-01-17T06:05:57.181Z,7.89
2023-01-17T06:08:25.708Z,7.79
2023-01-17T06:10:54.118Z,7.71
2023-01-17T06:13:23.463Z,7.55
2023-01-17T06:15:52.140Z,7.78
2023-01-17T06:18:20.881Z,8.07
2023-01-17T06:20:57.129Z,7.92
2023-01-17T06:23:25.935Z,8.09
2023-01-17T06:25:54.487Z,7.88
2023-01-17T06:28:24.105Z,8.02
2023-01-17T06:30:52.660Z,8.06
2023-01-17T06:33:21.189Z,7.89
2023-01-17T06:35:51.229Z,8.01
2023-01-17T06:38:20.038Z,8.01
2023-01-17T06:40:48.630Z,8.08
2023-01-17T06:43:17.170Z,8.03
2023-01-17T06:45:45.678Z,8.19
2023-01-17T06:48:14.714Z,8.27
2023-01-17T06:50:44.142Z,8.13
2023-01-17T06:53:12.565Z,8.57
2023-01-17T06:55:41.691Z,8.37
2023-01-17T06:58:10.502Z,8.33
2023-01-17T07:00:40.892Z,8.36
2023-01-17T07:03:22.527Z,8.44
2023-01-17T07:05:51.593Z,8.42
2023-01-17T07:08:20.898Z,8.46
2023-01-17T07:10:49.573Z,8.51
2023-01-17T07:13:18.101Z,8.65
2023-01-17T07:15:46.732Z,8.56
2023-01-17T07:18:16.484Z,8.66
2023-01-17T07:20:45.029Z,8.47
2023-01-17T07:23:14.276Z,8.43
2023-01-17T07:25:42.942Z,8.69
2023-01-17T07:28:11.380Z,8.76
2023-01-17T07:30:39.930Z,8.53
2023-01-17T07:33:09.572Z,8.50
2023-01-17T07:35:38.956Z,8.45
2023-01-17T07:38:11.775Z,8.70
2023-01-17T07:40:42.436Z,8.81
2023-01-17T07:43:14.448Z,8.84
2023-01-17T07:45:51.449Z,8.52
2023-01-17T07:48:22.366Z,8.60
2023-01-17T07:50:58.403Z,8.58
2023-01-17T07:53:30.041Z,8.51
2023-01-17T07:56:04.982Z,8.44
2023-01-17T07:58:34.723Z,8.39
2023-01-17T08:01:09.078Z,8.51
2023-01-17T08:03:42.172Z,8.66
2023-01-17T08:06:22.639Z,8.52
2023-01-17T08:08:51.508Z,8.42
2023-01-17T08:11:19.967Z,8.52
2023-01-17T08:13:48.781Z,8.62
2023-01-17T08:16:17.271Z,8.55
2023-01-17T08:18:45.793Z,8.66
2023-01-17T08:21:17.073Z,8.58
2023-01-17T08:23:49.775Z,8.64
2023-01-17T08:26:24.103Z,8.58
2023-01-17T08:29:02.267Z,8.60
2023-01-17T08:31:34.177Z,8.68
2023-01-17T08:34:02.826Z,8.81
2023-01-17T08:36:31.565Z,8.83
2023-01-17T08:39:00.360Z,8.77
2023-01-17T08:41:28.989Z,8.82
2023-01-17T08:43:58.007Z,8.95
2023-01-17T08:46:27.271Z,8.85
2023-01-17T08:48:59.111Z,8.98
2023-01-17T08:51:28.921Z,9.41
2023-01-17T08:53:57.583Z,9.21
2023-01-17T08:56:27.175Z,9.20
2023-01-17T08:58:55.704Z,9.40
2023-01-17T09:01:24.537Z,9.53
2023-01-17T09:03:53.159Z,9.55
2023-01-17T09:06:22.425Z,9.44
2023-01-17T09:08:54.951Z,9.54
2023-01-17T09:11:23.527Z,9.47
2023-01-17T09:13:52.007Z,9.84
2023-01-17T09:16:20.687Z,9.91
2023-01-17T09:18:49.234Z,10.12
2023-01-17T09:21:18.972Z,9.95
2023-01-17T09:23:47.413Z,9.81
2023-01-17T09:26:25.626Z,10.02
2023-01-17T09:28:55.348Z,10.00
2023-01-17T09:31:25.029Z,9.78
2023-01-17T09:33:55.498Z,10.08
2023-01-17T09:36:27.193Z,10.18
2023-01-17T09:38:58.409Z,10.23
2023-01-17T09:41:31.347Z,10.22
2023-01-17T09:44:17.875Z,10.28
2023-01-17T09:46:49.284Z,10.26
2023-01-17T09:49:36.243Z,10.41
2023-01-17T09:52:07.465Z,10.44
2023-01-17T09:54:41.030Z,10.16
2023-01-17T09:57:35.070Z,10.31
2023-01-17T10:00:34.449Z,10.47
2023-01-17T10:03:28.231Z,10.07
2023-01-17T10:06:02.956Z,10.28
2023-01-17T10:09:00.914Z,10.48
2023-01-17T10:12:00.893Z,10.56
2023-01-17T10:15:07.435Z,10.36
2023-01-17T10:17:49.202Z,10.63
2023-01-17T10:20:53.963Z,10.43
2023-01-17T10:23:50.570Z,10.61
2023-01-17T10:26:26.408Z,10.81
2023-01-17T10:29:02.827Z,11.27
2023-01-17T10:31:42.778Z,11.77
2023-01-17T10:34:20.113Z,11.42
2023-01-17T10:37:03.854Z,11.10
2023-01-17T10:39:33.347Z,10.91
2023-01-17T10:42:18.526Z,10.94
2023-01-17T10:44:56.232Z,11.24
2023-01-17T10:47:28.082Z,11.20
2023-01-17T10:50:02.228Z,10.90
2023-01-17T10:52:43.635Z,11.29
2023-01-17T10:55:36.981Z,11.14
2023-01-17T10:58:08.992Z,10.86
2023-01-17T11:00:58.704Z,10.90
2023-01-17T11:03:28.846Z,10.76
2023-01-17T11:06:18.794Z,10.90
2023-01-17T11:08:58.830Z,10.92
2023-01-17T11:11:33.142Z,10.95
2023-01-17T11:14:18.871Z,10.85
2023-01-17T11:17:03.010Z,10.96
2023-01-17T11:19:35.655Z,11.08
2023-01-17T11:22:07.048Z,10.98
2023-01-17T11:24:39.225Z,10.99
2023-01-17T11:27:23.133Z,10.94
2023-01-17T11:30:20.182Z,10.93
2023-01-17T11:33:00.847Z,10.85
2023-01-17T11:35:30.716Z,11.12
2023-01-17T11:38:15.110Z,10.95
2023-01-17T11:40:45.769Z,10.90
2023-01-17T11:43:22.121Z,10.81
2023-01-17T11:46:06.207Z,10.89
2023-01-17T11:48:37.769Z,10.78
2023-01-17T11:51:31.536Z,10.98
2023-01-17T11:54:18.646Z,11.09
2023-01-17T11:56:47.120Z,11.94
2023-01-17T11:59:43.523Z,12.37
2023-01-17T12:02:43.116Z,12.67
2023-01-17T12:05:39.961Z,13.30
2023-01-17T12:08:53.400Z,12.28
2023-01-17T12:11:32.553Z,11.63
2023-01-17T12:14:19.771Z,11.84
2023-01-17T12:17:08.292Z,12.22
2023-01-17T12:20:06.304Z,12.22
2023-01-17T12:22:56.857Z,12.14
2023-01-17T12:25:47.531Z,11.89
2023-01-17T12:28:25.522Z,12.04
2023-01-17T12:31:35.282Z,11.92
2023-01-17T12:34:25.363Z,11.57
2023-01-17T12:37:08.717Z,11.95
2023-01-17T12:39:41.535Z,11.87
2023-01-17T12:42:19.056Z,11.31
2023-01-17T12:45:07.940Z,11.35
2023-01-17T12:47:45.656Z,11.29
2023-01-17T12:50:37.700Z,11.32
2023-01-17T12:53:26.679Z,11.46
2023-01-17T12:56:17.603Z,11.50
2023-01-17T12:58:55.110Z,11.70
2023-01-17T13:01:40.125Z,11.31
2023-01-17T13:04:46.871Z,11.12
2023-01-17T13:07:41.480Z,11.26
2023-01-17T13:10:29.742Z,11.66
2023-01-17T13:13:12.201Z,11.34
2023-01-17T13:15:43.273Z,11.42
2023-01-17T13:18:23.014Z,11.47
2023-01-17T13:21:25.571Z,11.19
2023-01-17T13:24:02.512Z,10.75
2023-01-17T13:26:40.519Z,10.84
2023-01-17T13:29:19.777Z,11.06
2023-01-17T13:31:51.305Z,11.52
2023-01-17T13:34:55.298Z,10.85
2023-01-17T13:37:26.814Z,11.15
2023-01-17T13:40:06.530Z,11.56
2023-01-17T13:43:00.585Z,11.10
2023-01-17T13:45:32.396Z,10.96
2023-01-17T13:48:14.990Z,10.66
2023-01-17T13:50:46.226Z,10.73
2023-01-17T13:53:39.654Z,10.24
2023-01-17T13:56:25.036Z,10.27
2023-01-17T13:58:58.165Z,10.22
2023-01-17T14:01:46.931Z,10.33
2023-01-17T14:04:15.483Z,10.15
2023-01-17T14:06:55.712Z,10.20
2023-01-17T14:09:45.546Z,10.01
2023-01-17T14:12:15.301Z,10.33
2023-01-17T14:14:48.155Z,10.20
2023-01-17T14:17:16.702Z,9.96
2023-01-17T14:19:51.213Z,9.99
2023-01-17T14:22:20.280Z,10.21
2023-01-17T14:25:19.951Z,10.73
2023-01-17T14:28:04.129Z,12.44
2023-01-17T14:30:32.581Z,11.98
2023-01-17T14:33:10.733Z,12.58
2023-01-17T14:35:52.675Z,12.90
2023-01-17T14:38:26.819Z,12.80
2023-01-17T14:41:00.246Z,12.86
2023-01-17T14:43:33.299Z,12.77
2023-01-17T14:46:08.376Z,12.19
2023-01-17T14:48:41.261Z,11.84
2023-01-17T14:51:19.044Z,10.91
2023-01-17T14:54:02.592Z,10.56
2023-01-17T14:56:35.366Z,10.74
2023-01-17T14:59:17.511Z,10.61
2023-01-17T15:02:08.259Z,10.31
2023-01-17T15:04:40.026Z,10.02
2023-01-17T15:07:16.601Z,9.94
2023-01-17T15:09:46.826Z,9.94
2023-01-17T15:12:15.447Z,10.11
2023-01-17T15:14:46.697Z,9.87
2023-01-17T15:17:26.654Z,9.78
2023-01-17T15:20:01.877Z,9.54
2023-01-17T15:22:31.030Z,9.34
2023-01-17T15:25:00.742Z,9.38
2023-01-17T15:27:29.560Z,9.36
2023-01-17T15:30:02.604Z,9.17
2023-01-17T15:32:32.120Z,9.19
2023-01-17T15:35:03.005Z,9.15
2023-01-17T15:37:42.216Z,9.04
2023-01-17T15:40:22.860Z,9.07
2023-01-17T15:42:56.898Z,9.03
2023-01-17T15:45:31.974Z,8.94
2023-01-17T15:48:39.417Z,8.67
2023-01-17T15:51:11.229Z,8.71
2023-01-17T15:53:43.073Z,8.73
2023-01-17T15:56:38.204Z,8.72
2023-01-17T15:59:30.380Z,8.62
2023-01-17T16:01:59.459Z,8.54
2023-01-17T16:04:37.648Z,8.64
2023-01-17T16:07:22.005Z,8.45
2023-01-17T16:09:50.552Z,8.51
2023-01-17T16:12:19.110Z,8.54
2023-01-17T16:15:06.262Z,8.52
2023-01-17T16:17:36.862Z,8.39
2023-01-17T16:20:16.262Z,8.40
2023-01-17T16:22:44.791Z,8.41
2023-01-17T16:25:19.274Z,8.35
2023-01-17T16:27:48.786Z,8.21
2023-01-17T16:30:22.182Z,8.18
2023-01-17T16:32:50.792Z,8.23
2023-01-17T16:35:24.811Z,8.22
2023-01-17T16:37:56.224Z,8.11
2023-01-17T16:40:27.785Z,8.15
2023-01-17T16:42:57.439Z,8.19
2023-01-17T16:45:26.467Z,8.07
2023-01-17T16:47:54.996Z,8.11
2023-01-17T16:50:25.264Z,8.17
2023-01-17T16:52:56.517Z,8.16
2023-01-17T16:55:26.096Z,8.09
2023-01-17T16:57:58.388Z,8.10
2023-01-17T17:00:27.183Z,8.10
2023-01-17T17:02:55.649Z,8.03
2023-01-17T17:05:24.163Z,7.94
2023-01-17T17:07:53.389Z,8.08
2023-01-17T17:10:25.411Z,8.19
2023-01-17T17:12:54.376Z,8.36
2023-01-17T17:15:23.060Z,8.40
2023-01-17T17:17:51.716Z,8.34
2023-01-17T17:20:20.315Z,8.29
2023-01-17T17:22:52.402Z,8.13
2023-01-17T17:25:20.861Z,8.08
2023-01-17T17:27:49.321Z,8.17
2023-01-17T17:30:18.334Z,8.21
2023-01-17T17:32:47.875Z,8.33
2023-01-17T17:35:16.493Z,8.10
2023-01-17T17:37:45.037Z,8.05
2023-01-17T17:40:13.595Z,8.04
2023-01-17T17:42:43.273Z,7.99
2023-01-17T17:45:12.058Z,7.97
2023-01-17T17:47:40.685Z,7.86
2023-01-17T17:50:09.841Z,7.95
2023-01-17T17:52:38.404Z,7.83
2023-01-17T17:55:07.385Z,7.67
2023-01-17T17:57:35.871Z,7.67
2023-01-17T18:00:05.834Z,7.70
2023-01-17T18:02:35.276Z,7.46
2023-01-17T18:05:04.234Z,7.37
2023-01-17T18:07:33.247Z,7.33
2023-01-17T18:10:01.732Z,7.28
2023-01-17T18:12:30.148Z,7.38
2023-01-17T18:14:58.584Z,7.52
2023-01-17T18:17:27.109Z,7.54
2023-01-17T18:19:55.653Z,7.49
2023-01-17T18:22:24.602Z,7.35
2023-01-17T18:24:53.128Z,7.28
2023-01-17T18:27:21.595Z,7.06
2023-01-17T18:29:50.188Z,6.82
2023-01-17T18:32:19.151Z,6.47
2023-01-17T18:34:47.756Z,6.39
2023-01-17T18:37:16.164Z,6.43
2023-01-17T18:39:44.658Z,6.30
2023-01-17T18:42:13.213Z,6.23
2023-01-17T18:44:41.740Z,6.09
2023-01-17T18:47:11.265Z,5.85
2023-01-17T18:49:39.860Z,5.74
2023-01-17T18:52:09.533Z,5.65
2023-01-17T18:54:38.180Z,5.79
2023-01-17T18:57:06.675Z,5.99
2023-01-17T18:59:35.184Z,5.96
2023-01-17T19:02:04.051Z,6.00
2023-01-17T19:04:34.192Z,6.11
2023-01-17T19:07:02.692Z,6.21
2023-01-17T19:09:32.384Z,6.26
2023-01-17T19:12:00.923Z,6.28
2023-01-17T19:14:29.408Z,6.29
2023-01-17T19:16:57.823Z,6.24
2023-01-17T19:19:26.404Z,6.06
2023-01-17T19:21:54.981Z,5.95
2023-01-17T19:24:23.512Z,5.97
2023-01-17T19:26:53.546Z,5.91
2023-01-17T19:29:22.856Z,5.88
2023-01-17T19:31:51.911Z,5.52
2023-01-17T19:34:20.634Z,5.40
2023-01-17T19:36:49.146Z,5.57
2023-01-17T19:39:17.602Z,5.65
2023-01-17T19:41:46.407Z,5.68
2023-01-17T19:44:15.413Z,5.65
2023-01-17T19:46:45.637Z,5.59
2023-01-17T19:49:16.649Z,5.55
2023-01-17T19:51:45.110Z,5.53
2023-01-17T19:54:15.475Z,5.44
2023-01-17T19:56:43.963Z,5.38
2023-01-17T19:59:13.988Z,5.18
2023-01-17T20:01:42.774Z,5.23
2023-01-17T20:04:13.099Z,5.21
2023-01-17T20:06:41.563Z,5.27
2023-01-17T20:09:10.130Z,5.09
2023-01-17T20:11:39.170Z,5.04
2023-01-17T20:14:08.068Z,4.70
2023-01-17T20:16:37.921Z,4.64
2023-01-17T20:19:06.476Z,4.86
2023-01-17T20:21:34.980Z,5.08
2023-01-17T20:24:03.722Z,4.91
2023-01-17T20:26:36.313Z,5.02
2023-01-17T20:29:10.828Z,5.03
2023-01-17T20:31:41.313Z,5.20
2023-01-17T20:34:12.884Z,5.25
2023-01-17T20:36:42.732Z,5.23
2023-01-17T20:39:13.671Z,5.15
2023-01-17T20:41:44.948Z,5.05
2023-01-17T20:44:15.549Z,5.09
2023-01-17T20:46:45.771Z,4.89
2023-01-17T20:49:18.951Z,4.87
2023-01-17T20:51:47.946Z,5.04
2023-01-17T20:54:18.916Z,5.11
2023-01-17T20:56:48.198Z,4.99
2023-01-17T20:59:22.566Z,4.78
2023-01-17T21:01:52.226Z,4.66
2023-01-17T21:04:26.143Z,4.60
2023-01-17T21:06:55.665Z,4.74
2023-01-17T21:09:24.383Z,4.98
2023-01-17T21:11:54.595Z,4.85
2023-01-17T21:14:23.438Z,4.75
2023-01-17T21:16:52.157Z,4.79
2023-01-17T21:19:21.015Z,4.89
2023-01-17T21:21:50.356Z,4.89
2023-01-17T21:24:19.883Z,4.99
2023-01-17T21:26:51.753Z,4.91
2023-01-17T21:29:20.579Z,4.74
2023-01-17T21:31:49.153Z,4.93
2023-01-17T21:34:17.547Z,5.08
2023-01-17T21:36:46.143Z,5.01
2023-01-17T21:39:17.250Z,5.05
2023-01-17T21:41:48.286Z,5.19
2023-01-17T21:44:20.248Z,4.88
2023-01-17T21:46:55.029Z,4.67
2023-01-17T21:49:24.823Z,4.75
2023-01-17T21:51:53.414Z,4.93
2023-01-17T21:54:43.610Z,4.80
2023-01-17T21:57:33.091Z,4.61
2023-01-17T22:00:01.644Z,4.56
2023-01-17T22:02:30.374Z,4.63
2023-01-17T22:04:59.049Z,4.92
2023-01-17T22:07:29.270Z,5.15
2023-01-17T22:09:57.757Z,5.15
2023-01-17T22:12:26.477Z,5.18
2023-01-17T22:14:55.211Z,5.23
2023-01-17T22:17:23.778Z,4.98
2023-01-17T22:19:52.290Z,4.73
2023-01-17T22:22:20.802Z,4.72
2023-01-17T22:24:49.215Z,4.70
2023-01-17T22:27:17.701Z,4.81
2023-01-17T22:29:46.221Z,4.87
2023-01-17T22:32:14.749Z,4.66
2023-01-17T22:34:43.268Z,4.63
2023-01-17T22:37:11.747Z,4.61
2023-01-17T22:39:40.298Z,4.59
2023-01-17T22:42:08.766Z,4.69
2023-01-17T22:44:37.266Z,4.69
2023-01-17T22:47:05.778Z,4.41
2023-01-17T22:49:34.349Z,4.51
2023-01-17T22:52:02.826Z,4.41
2023-01-17T22:54:31.589Z,4.34
2023-01-17T22:56:59.986Z,4.07
2023-01-17T22:59:28.541Z,3.91
2023-01-17T23:01:57.120Z,4.13
2023-01-17T23:04:26.155Z,4.30
2023-01-17T23:06:54.871Z,4.37
2023-01-17T23:09:23.316Z,4.39
2023-01-17T23:11:54.417Z,4.31
2023-01-17T23:14:51.567Z,4.35
2023-01-17T23:17:40.885Z,4.24
2023-01-17T23:20:11.230Z,4.29
2023-01-17T23:22:40.263Z,4.25
2023-01-17T23:25:13.703Z,4.21
2023-01-17T23:28:03.616Z,4.25
2023-01-17T23:30:37.070Z,4.16
2023-01-17T23:33:08.387Z,4.15
2023-01-17T23:35:42.550Z,4.15
2023-01-17T23:38:31.009Z,4.00
2023-01-17T23:41:26.813Z,3.96
2023-01-17T23:43:57.928Z,4.05
2023-01-17T23:46:27.492Z,4.21
2023-01-17T23:48:56.055Z,4.28
2023-01-17T23:51:24.485Z,4.28
2023-01-17T23:53:57.631Z,4.19
2023-01-17T23:56:26.185Z,4.21
2023-01-17T23:58:54.628Z,4.30
